sensor_id;sensor_type;location;lat;lon;timestamp;temperature;humidity
16301;DHT22;8258;51.020;4.248;2022-08-30T00:00:49;17.70;99.90
16301;DHT22;8258;51.020;4.248;2022-08-30T00:03:28;17.80;99.90
16301;DHT22;8258;51.020;4.248;2022-08-30T00:05:55;17.90;99.90
16301;DHT22;8258;51.020;4.248;2022-08-30T00:08:22;17.80;99.90
16301;DHT22;8258;51.020;4.248;2022-08-30T00:10:51;17.70;99.90
16301;DHT22;8258;51.020;4.248;2022-08-30T00:13:19;17.70;99.90
16301;DHT22;8258;51.020;4.248;2022-08-30T00:15:47;17.80;99.90
16301;DHT22;8258;51.020;4.248;2022-08-30T00:18:14;17.80;99.90
16301;DHT22;8258;51.020;4.248;2022-08-30T00:20:43;17.80;99.90
16301;DHT22;8258;51.020;4.248;2022-08-30T00:23:11;17.80;99.90
16301;DHT22;8258;51.020;4.248;2022-08-30T00:25:38;17.70;99.90
16301;DHT22;8258;51.020;4.248;2022-08-30T00:28:07;17.70;99.90
16301;DHT22;8258;51.020;4.248;2022-08-30T00:30:35;17.80;99.90
16301;DHT22;8258;51.020;4.248;2022-08-30T00:33:02;17.90;99.90
16301;DHT22;8258;51.020;4.248;2022-08-30T00:35:29;17.90;99.90
16301;DHT22;8258;51.020;4.248;2022-08-30T00:37:56;18.10;99.90
16301;DHT22;8258;51.020;4.248;2022-08-30T00:40:24;18.10;99.90
16301;DHT22;8258;51.020;4.248;2022-08-30T00:42:54;18.10;99.90
16301;DHT22;8258;51.020;4.248;2022-08-30T00:45:27;18.20;99.90
16301;DHT22;8258;51.020;4.248;2022-08-30T00:47:55;18.20;99.90
16301;DHT22;8258;51.020;4.248;2022-08-30T00:50:34;18.10;99.90
16301;DHT22;8258;51.020;4.248;2022-08-30T00:53:04;18.10;99.90
16301;DHT22;8258;51.020;4.248;2022-08-30T00:55:32;18.10;99.90
16301;DHT22;8258;51.020;4.248;2022-08-30T00:58:02;18.00;99.90
16301;DHT22;8258;51.020;4.248;2022-08-30T01:00:33;17.90;99.90
16301;DHT22;8258;51.020;4.248;2022-08-30T01:03:01;17.80;99.90
16301;DHT22;8258;51.020;4.248;2022-08-30T01:05:28;17.80;99.90
16301;DHT22;8258;51.020;4.248;2022-08-30T01:07:55;17.70;99.90
16301;DHT22;8258;51.020;4.248;2022-08-30T01:10:22;17.70;99.90
16301;DHT22;8258;51.020;4.248;2022-08-30T01:12:49;17.60;99.90
16301;DHT22;8258;51.020;4.248;2022-08-30T01:15:16;17.60;99.90
16301;DHT22;8258;51.020;4.248;2022-08-30T01:17:46;17.60;99.90
16301;DHT22;8258;51.020;4.248;2022-08-30T01:20:16;17.60;99.90
16301;DHT22;8258;51.020;4.248;2022-08-30T01:22:58;17.50;99.90
16301;DHT22;8258;51.020;4.248;2022-08-30T01:25:29;17.50;99.90
16301;DHT22;8258;51.020;4.248;2022-08-30T01:28:00;17.40;99.90
16301;DHT22;8258;51.020;4.248;2022-08-30T01:30:32;17.40;99.90
16301;DHT22;8258;51.020;4.248;2022-08-30T01:33:02;17.40;99.90
16301;DHT22;8258;51.020;4.248;2022-08-30T01:35:34;17.40;99.90
16301;DHT22;8258;51.020;4.248;2022-08-30T01:38:03;17.30;99.90
16301;DHT22;8258;51.020;4.248;2022-08-30T01:40:30;17.30;99.90
16301;DHT22;8258;51.020;4.248;2022-08-30T01:42:57;17.30;99.90
16301;DHT22;8258;51.020;4.248;2022-08-30T01:45:29;17.30;99.90
16301;DHT22;8258;51.020;4.248;2022-08-30T01:47:56;17.30;99.90
16301;DHT22;8258;51.020;4.248;2022-08-30T01:50:23;17.30;99.90
16301;DHT22;8258;51.020;4.248;2022-08-30T01:52:50;17.20;99.90
16301;DHT22;8258;51.020;4.248;2022-08-30T01:55:18;17.20;99.90
16301;DHT22;8258;51.020;4.248;2022-08-30T01:57:45;17.20;99.90
16301;DHT22;8258;51.020;4.248;2022-08-30T02:00:15;17.20;99.90
16301;DHT22;8258;51.020;4.248;2022-08-30T02:02:42;17.30;99.90
16301;DHT22;8258;51.020;4.248;2022-08-30T02:05:10;17.30;99.90
16301;DHT22;8258;51.020;4.248;2022-08-30T02:07:37;17.20;99.90
16301;DHT22;8258;51.020;4.248;2022-08-30T02:10:04;17.20;99.90
16301;DHT22;8258;51.020;4.248;2022-08-30T02:12:33;17.10;99.90
16301;DHT22;8258;51.020;4.248;2022-08-30T02:15:00;17.20;99.90
16301;DHT22;8258;51.020;4.248;2022-08-30T02:17:27;17.20;99.90
16301;DHT22;8258;51.020;4.248;2022-08-30T02:19:53;17.20;99.90
16301;DHT22;8258;51.020;4.248;2022-08-30T02:22:20;17.20;99.90
16301;DHT22;8258;51.020;4.248;2022-08-30T02:24:47;17.10;99.90
16301;DHT22;8258;51.020;4.248;2022-08-30T02:27:14;17.10;99.90
16301;DHT22;8258;51.020;4.248;2022-08-30T02:29:42;17.10;99.90
16301;DHT22;8258;51.020;4.248;2022-08-30T02:32:09;17.10;99.90
16301;DHT22;8258;51.020;4.248;2022-08-30T02:34:36;17.20;99.90
16301;DHT22;8258;51.020;4.248;2022-08-30T02:37:03;17.10;99.90
16301;DHT22;8258;51.020;4.248;2022-08-30T02:39:30;17.10;99.90
16301;DHT22;8258;51.020;4.248;2022-08-30T02:41:57;17.20;99.90
16301;DHT22;8258;51.020;4.248;2022-08-30T02:44:24;17.10;99.90
16301;DHT22;8258;51.020;4.248;2022-08-30T02:46:52;17.20;99.90
16301;DHT22;8258;51.020;4.248;2022-08-30T02:49:19;17.20;99.90
16301;DHT22;8258;51.020;4.248;2022-08-30T02:51:46;17.20;99.90
16301;DHT22;8258;51.020;4.248;2022-08-30T02:54:13;17.20;99.90
16301;DHT22;8258;51.020;4.248;2022-08-30T02:56:44;17.20;99.90
16301;DHT22;8258;51.020;4.248;2022-08-30T02:59:11;17.20;99.90
16301;DHT22;8258;51.020;4.248;2022-08-30T03:01:38;17.30;99.90
16301;DHT22;8258;51.020;4.248;2022-08-30T03:04:07;17.20;99.90
16301;DHT22;8258;51.020;4.248;2022-08-30T03:06:34;17.20;99.90
16301;DHT22;8258;51.020;4.248;2022-08-30T03:09:01;17.20;99.90
16301;DHT22;8258;51.020;4.248;2022-08-30T03:11:28;17.20;99.90
16301;DHT22;8258;51.020;4.248;2022-08-30T03:13:55;17.20;99.90
16301;DHT22;8258;51.020;4.248;2022-08-30T03:16:22;17.20;99.90
16301;DHT22;8258;51.020;4.248;2022-08-30T03:18:49;17.20;99.90
16301;DHT22;8258;51.020;4.248;2022-08-30T03:21:17;17.20;99.90
16301;DHT22;8258;51.020;4.248;2022-08-30T03:23:45;17.20;99.90
16301;DHT22;8258;51.020;4.248;2022-08-30T03:26:12;17.20;99.90
16301;DHT22;8258;51.020;4.248;2022-08-30T03:28:40;17.30;99.90
16301;DHT22;8258;51.020;4.248;2022-08-30T03:31:07;17.30;99.90
16301;DHT22;8258;51.020;4.248;2022-08-30T03:33:35;17.30;99.90
16301;DHT22;8258;51.020;4.248;2022-08-30T03:36:04;17.30;99.90
16301;DHT22;8258;51.020;4.248;2022-08-30T03:38:33;17.30;99.90
16301;DHT22;8258;51.020;4.248;2022-08-30T03:41:00;17.20;99.90
16301;DHT22;8258;51.020;4.248;2022-08-30T03:43:27;17.20;99.90
16301;DHT22;8258;51.020;4.248;2022-08-30T03:45:54;17.10;99.90
16301;DHT22;8258;51.020;4.248;2022-08-30T03:48:21;17.10;99.90
16301;DHT22;8258;51.020;4.248;2022-08-30T03:50:47;17.10;99.90
16301;DHT22;8258;51.020;4.248;2022-08-30T03:53:14;17.10;99.90
16301;DHT22;8258;51.020;4.248;2022-08-30T03:55:43;17.00;99.90
16301;DHT22;8258;51.020;4.248;2022-08-30T03:58:10;17.00;99.90
16301;DHT22;8258;51.020;4.248;2022-08-30T04:00:37;16.90;99.90
16301;DHT22;8258;51.020;4.248;2022-08-30T04:03:04;16.90;99.90
16301;DHT22;8258;51.020;4.248;2022-08-30T04:05:31;16.90;99.90
16301;DHT22;8258;51.020;4.248;2022-08-30T04:07:58;16.80;99.90
16301;DHT22;8258;51.020;4.248;2022-08-30T04:10:25;16.80;99.90
16301;DHT22;8258;51.020;4.248;2022-08-30T04:12:53;16.90;99.90
16301;DHT22;8258;51.020;4.248;2022-08-30T04:15:21;16.90;99.90
16301;DHT22;8258;51.020;4.248;2022-08-30T04:17:48;17.00;99.90
16301;DHT22;8258;51.020;4.248;2022-08-30T04:20:15;17.00;99.90
16301;DHT22;8258;51.020;4.248;2022-08-30T04:22:43;17.00;99.90
16301;DHT22;8258;51.020;4.248;2022-08-30T04:25:10;16.90;99.90
16301;DHT22;8258;51.020;4.248;2022-08-30T04:27:37;16.90;99.90
16301;DHT22;8258;51.020;4.248;2022-08-30T04:30:07;16.90;99.90
16301;DHT22;8258;51.020;4.248;2022-08-30T04:32:34;16.80;99.90
16301;DHT22;8258;51.020;4.248;2022-08-30T04:35:03;16.80;99.90
16301;DHT22;8258;51.020;4.248;2022-08-30T04:37:31;16.90;99.90
16301;DHT22;8258;51.020;4.248;2022-08-30T04:39:58;16.80;99.90
16301;DHT22;8258;51.020;4.248;2022-08-30T04:42:25;16.80;99.90
16301;DHT22;8258;51.020;4.248;2022-08-30T04:44:56;16.80;99.90
16301;DHT22;8258;51.020;4.248;2022-08-30T04:47:24;16.80;99.90
16301;DHT22;8258;51.020;4.248;2022-08-30T04:49:51;16.70;99.90
16301;DHT22;8258;51.020;4.248;2022-08-30T04:52:18;16.70;99.90
16301;DHT22;8258;51.020;4.248;2022-08-30T04:54:45;16.70;99.90
16301;DHT22;8258;51.020;4.248;2022-08-30T04:57:12;16.60;99.90
16301;DHT22;8258;51.020;4.248;2022-08-30T04:59:39;16.60;99.90
16301;DHT22;8258;51.020;4.248;2022-08-30T05:02:06;16.70;99.90
16301;DHT22;8258;51.020;4.248;2022-08-30T05:04:35;16.70;99.90
16301;DHT22;8258;51.020;4.248;2022-08-30T05:07:02;16.60;99.90
16301;DHT22;8258;51.020;4.248;2022-08-30T05:09:29;16.60;99.90
16301;DHT22;8258;51.020;4.248;2022-08-30T05:11:56;16.70;99.90
16301;DHT22;8258;51.020;4.248;2022-08-30T05:14:22;16.70;99.90
16301;DHT22;8258;51.020;4.248;2022-08-30T05:16:49;16.60;99.90
16301;DHT22;8258;51.020;4.248;2022-08-30T05:19:16;16.60;99.90
16301;DHT22;8258;51.020;4.248;2022-08-30T05:21:45;16.60;99.90
16301;DHT22;8258;51.020;4.248;2022-08-30T05:24:12;16.70;99.90
16301;DHT22;8258;51.020;4.248;2022-08-30T05:26:39;16.80;99.90
16301;DHT22;8258;51.020;4.248;2022-08-30T05:29:06;16.70;99.90
16301;DHT22;8258;51.020;4.248;2022-08-30T05:31:34;16.70;99.90
16301;DHT22;8258;51.020;4.248;2022-08-30T05:34:02;16.70;99.90
16301;DHT22;8258;51.020;4.248;2022-08-30T05:36:32;16.70;99.90
16301;DHT22;8258;51.020;4.248;2022-08-30T05:39:01;16.70;99.90
16301;DHT22;8258;51.020;4.248;2022-08-30T05:41:28;16.80;99.90
16301;DHT22;8258;51.020;4.248;2022-08-30T05:43:57;16.80;99.90
16301;DHT22;8258;51.020;4.248;2022-08-30T05:46:25;16.90;99.90
16301;DHT22;8258;51.020;4.248;2022-08-30T05:48:54;16.90;99.90
16301;DHT22;8258;51.020;4.248;2022-08-30T05:51:23;16.90;99.90
16301;DHT22;8258;51.020;4.248;2022-08-30T05:53:52;17.00;99.90
16301;DHT22;8258;51.020;4.248;2022-08-30T05:56:23;17.10;99.90
16301;DHT22;8258;51.020;4.248;2022-08-30T05:58:50;17.20;99.90
16301;DHT22;8258;51.020;4.248;2022-08-30T06:01:22;17.30;99.90
16301;DHT22;8258;51.020;4.248;2022-08-30T06:03:49;17.30;99.90
16301;DHT22;8258;51.020;4.248;2022-08-30T06:06:16;17.40;99.90
16301;DHT22;8258;51.020;4.248;2022-08-30T06:08:43;17.60;99.90
16301;DHT22;8258;51.020;4.248;2022-08-30T06:11:12;17.70;99.90
16301;DHT22;8258;51.020;4.248;2022-08-30T06:13:40;17.80;99.90
16301;DHT22;8258;51.020;4.248;2022-08-30T06:16:09;17.90;99.90
16301;DHT22;8258;51.020;4.248;2022-08-30T06:18:36;17.90;99.90
16301;DHT22;8258;51.020;4.248;2022-08-30T06:21:03;18.00;99.90
16301;DHT22;8258;51.020;4.248;2022-08-30T06:23:31;18.30;99.90
16301;DHT22;8258;51.020;4.248;2022-08-30T06:26:03;18.30;99.90
16301;DHT22;8258;51.020;4.248;2022-08-30T06:28:30;18.30;99.90
16301;DHT22;8258;51.020;4.248;2022-08-30T06:30:59;18.40;99.90
16301;DHT22;8258;51.020;4.248;2022-08-30T06:33:26;18.30;99.90
16301;DHT22;8258;51.020;4.248;2022-08-30T06:35:52;18.40;99.90
16301;DHT22;8258;51.020;4.248;2022-08-30T06:38:19;18.40;99.90
16301;DHT22;8258;51.020;4.248;2022-08-30T06:40:46;18.50;99.90
16301;DHT22;8258;51.020;4.248;2022-08-30T06:43:15;18.60;99.90
16301;DHT22;8258;51.020;4.248;2022-08-30T06:45:42;18.70;99.90
16301;DHT22;8258;51.020;4.248;2022-08-30T06:48:10;18.80;99.90
16301;DHT22;8258;51.020;4.248;2022-08-30T06:50:37;18.90;99.90
16301;DHT22;8258;51.020;4.248;2022-08-30T06:53:06;18.80;99.90
16301;DHT22;8258;51.020;4.248;2022-08-30T06:55:34;18.90;99.90
16301;DHT22;8258;51.020;4.248;2022-08-30T06:58:01;19.00;99.90
16301;DHT22;8258;51.020;4.248;2022-08-30T07:00:28;19.10;99.90
16301;DHT22;8258;51.020;4.248;2022-08-30T07:02:55;19.20;99.90
16301;DHT22;8258;51.020;4.248;2022-08-30T07:05:23;19.10;99.90
16301;DHT22;8258;51.020;4.248;2022-08-30T07:07:51;19.30;99.90
16301;DHT22;8258;51.020;4.248;2022-08-30T07:10:19;19.40;99.90
16301;DHT22;8258;51.020;4.248;2022-08-30T07:12:47;19.60;99.90
16301;DHT22;8258;51.020;4.248;2022-08-30T07:15:14;19.80;99.90
16301;DHT22;8258;51.020;4.248;2022-08-30T07:17:45;19.90;99.90
16301;DHT22;8258;51.020;4.248;2022-08-30T07:20:30;20.10;99.90
16301;DHT22;8258;51.020;4.248;2022-08-30T07:22:57;20.40;99.90
16301;DHT22;8258;51.020;4.248;2022-08-30T07:25:24;20.50;99.90
16301;DHT22;8258;51.020;4.248;2022-08-30T07:27:51;20.70;99.90
16301;DHT22;8258;51.020;4.248;2022-08-30T07:30:18;20.80;99.90
16301;DHT22;8258;51.020;4.248;2022-08-30T07:32:45;20.90;99.90
16301;DHT22;8258;51.020;4.248;2022-08-30T07:35:13;21.00;99.90
16301;DHT22;8258;51.020;4.248;2022-08-30T07:37:41;21.00;99.90
16301;DHT22;8258;51.020;4.248;2022-08-30T07:40:09;20.90;99.90
16301;DHT22;8258;51.020;4.248;2022-08-30T07:42:36;20.70;99.90
16301;DHT22;8258;51.020;4.248;2022-08-30T07:45:06;20.70;99.90
16301;DHT22;8258;51.020;4.248;2022-08-30T07:47:33;21.20;99.90
16301;DHT22;8258;51.020;4.248;2022-08-30T07:50:00;21.50;99.90
16301;DHT22;8258;51.020;4.248;2022-08-30T07:52:27;22.00;99.90
16301;DHT22;8258;51.020;4.248;2022-08-30T07:54:57;22.50;99.90
16301;DHT22;8258;51.020;4.248;2022-08-30T07:57:24;22.90;99.90
16301;DHT22;8258;51.020;4.248;2022-08-30T07:59:52;23.20;99.90
16301;DHT22;8258;51.020;4.248;2022-08-30T08:02:19;23.30;99.90
16301;DHT22;8258;51.020;4.248;2022-08-30T08:04:46;23.50;99.90
16301;DHT22;8258;51.020;4.248;2022-08-30T08:07:14;23.70;99.90
16301;DHT22;8258;51.020;4.248;2022-08-30T08:09:41;24.20;99.90
16301;DHT22;8258;51.020;4.248;2022-08-30T08:12:09;24.40;99.90
16301;DHT22;8258;51.020;4.248;2022-08-30T08:14:36;24.80;99.90
16301;DHT22;8258;51.020;4.248;2022-08-30T08:17:04;25.10;99.90
16301;DHT22;8258;51.020;4.248;2022-08-30T08:19:31;25.00;99.90
16301;DHT22;8258;51.020;4.248;2022-08-30T08:21:58;25.00;99.90
16301;DHT22;8258;51.020;4.248;2022-08-30T08:24:25;25.00;99.90
16301;DHT22;8258;51.020;4.248;2022-08-30T08:26:52;25.50;99.90
16301;DHT22;8258;51.020;4.248;2022-08-30T08:29:22;26.10;99.90
16301;DHT22;8258;51.020;4.248;2022-08-30T08:31:50;26.50;99.90
16301;DHT22;8258;51.020;4.248;2022-08-30T08:34:16;26.70;99.90
16301;DHT22;8258;51.020;4.248;2022-08-30T08:36:47;26.70;99.90
16301;DHT22;8258;51.020;4.248;2022-08-30T08:39:15;26.10;99.90
16301;DHT22;8258;51.020;4.248;2022-08-30T08:41:51;25.80;99.90
16301;DHT22;8258;51.020;4.248;2022-08-30T08:44:28;26.20;99.90
16301;DHT22;8258;51.020;4.248;2022-08-30T08:47:03;27.10;99.90
16301;DHT22;8258;51.020;4.248;2022-08-30T08:49:34;28.00;99.90
16301;DHT22;8258;51.020;4.248;2022-08-30T08:52:02;27.70;99.90
16301;DHT22;8258;51.020;4.248;2022-08-30T08:54:51;27.20;99.90
16301;DHT22;8258;51.020;4.248;2022-08-30T08:57:20;27.20;99.90
16301;DHT22;8258;51.020;4.248;2022-08-30T08:59:49;27.40;99.90
16301;DHT22;8258;51.020;4.248;2022-08-30T09:02:22;28.10;99.90
16301;DHT22;8258;51.020;4.248;2022-08-30T09:04:52;28.20;99.90
16301;DHT22;8258;51.020;4.248;2022-08-30T09:07:22;28.40;99.90
16301;DHT22;8258;51.020;4.248;2022-08-30T09:09:50;28.80;99.90
16301;DHT22;8258;51.020;4.248;2022-08-30T09:12:17;29.00;99.90
16301;DHT22;8258;51.020;4.248;2022-08-30T09:14:50;30.00;99.50
16301;DHT22;8258;51.020;4.248;2022-08-30T09:17:19;30.00;98.50
16301;DHT22;8258;51.020;4.248;2022-08-30T09:19:57;29.80;97.90
16301;DHT22;8258;51.020;4.248;2022-08-30T09:22:30;29.10;99.30
16301;DHT22;8258;51.020;4.248;2022-08-30T09:25:01;28.40;99.90
16301;DHT22;8258;51.020;4.248;2022-08-30T09:27:32;28.40;99.80
16301;DHT22;8258;51.020;4.248;2022-08-30T09:30:05;28.60;99.90
16301;DHT22;8258;51.020;4.248;2022-08-30T09:32:36;29.00;99.50
16301;DHT22;8258;51.020;4.248;2022-08-30T09:35:08;29.70;98.50
16301;DHT22;8258;51.020;4.248;2022-08-30T09:37:39;29.90;97.60
16301;DHT22;8258;51.020;4.248;2022-08-30T09:40:14;29.70;97.30
16301;DHT22;8258;51.020;4.248;2022-08-30T09:42:59;29.90;96.50
16301;DHT22;8258;51.020;4.248;2022-08-30T09:45:31;29.70;96.70
16301;DHT22;8258;51.020;4.248;2022-08-30T09:47:59;29.10;96.90
16301;DHT22;8258;51.020;4.248;2022-08-30T09:50:31;28.00;98.30
16301;DHT22;8258;51.020;4.248;2022-08-30T09:53:04;28.30;98.60
16301;DHT22;8258;51.020;4.248;2022-08-30T09:55:54;28.40;98.20
16301;DHT22;8258;51.020;4.248;2022-08-30T09:58:37;28.40;97.50
16301;DHT22;8258;51.020;4.248;2022-08-30T10:01:11;28.10;98.60
16301;DHT22;8258;51.020;4.248;2022-08-30T10:03:43;28.20;98.00
16301;DHT22;8258;51.020;4.248;2022-08-30T10:06:23;27.80;98.20
16301;DHT22;8258;51.020;4.248;2022-08-30T10:09:01;28.70;97.90
16301;DHT22;8258;51.020;4.248;2022-08-30T10:11:35;29.20;97.70
16301;DHT22;8258;51.020;4.248;2022-08-30T10:14:25;30.30;95.80
16301;DHT22;8258;51.020;4.248;2022-08-30T10:16:59;30.70;94.30
16301;DHT22;8258;51.020;4.248;2022-08-30T10:19:40;30.30;94.50
16301;DHT22;8258;51.020;4.248;2022-08-30T10:22:13;30.20;94.20
16301;DHT22;8258;51.020;4.248;2022-08-30T10:24:44;30.60;94.10
16301;DHT22;8258;51.020;4.248;2022-08-30T10:27:17;31.10;92.70
16301;DHT22;8258;51.020;4.248;2022-08-30T10:29:48;30.60;92.90
16301;DHT22;8258;51.020;4.248;2022-08-30T10:32:22;30.90;92.90
16301;DHT22;8258;51.020;4.248;2022-08-30T10:34:53;30.90;92.80
16301;DHT22;8258;51.020;4.248;2022-08-30T10:37:24;30.70;92.50
16301;DHT22;8258;51.020;4.248;2022-08-30T10:39:53;30.50;92.90
16301;DHT22;8258;51.020;4.248;2022-08-30T10:42:24;30.10;92.30
16301;DHT22;8258;51.020;4.248;2022-08-30T10:44:57;30.20;92.50
16301;DHT22;8258;51.020;4.248;2022-08-30T10:47:34;30.30;92.30
16301;DHT22;8258;51.020;4.248;2022-08-30T10:50:06;30.40;92.40
16301;DHT22;8258;51.020;4.248;2022-08-30T10:52:40;30.30;91.80
16301;DHT22;8258;51.020;4.248;2022-08-30T10:55:12;30.00;92.00
16301;DHT22;8258;51.020;4.248;2022-08-30T10:57:40;29.90;91.60
16301;DHT22;8258;51.020;4.248;2022-08-30T11:00:09;29.30;93.00
16301;DHT22;8258;51.020;4.248;2022-08-30T11:03:10;29.20;93.50
16301;DHT22;8258;51.020;4.248;2022-08-30T11:06:11;28.80;93.50
16301;DHT22;8258;51.020;4.248;2022-08-30T11:11:40;28.50;94.20
16301;DHT22;8258;51.020;4.248;2022-08-30T11:14:14;29.60;93.10
16301;DHT22;8258;51.020;4.248;2022-08-30T11:16:44;30.00;91.90
16301;DHT22;8258;51.020;4.248;2022-08-30T11:19:18;30.50;92.40
16301;DHT22;8258;51.020;4.248;2022-08-30T11:21:47;31.40;90.90
16301;DHT22;8258;51.020;4.248;2022-08-30T11:24:16;32.80;88.50
16301;DHT22;8258;51.020;4.248;2022-08-30T11:26:55;32.20;87.80
16301;DHT22;8258;51.020;4.248;2022-08-30T11:29:40;32.00;87.90
16301;DHT22;8258;51.020;4.248;2022-08-30T11:32:23;32.70;86.90
16301;DHT22;8258;51.020;4.248;2022-08-30T11:35:34;32.90;85.60
16301;DHT22;8258;51.020;4.248;2022-08-30T11:38:10;32.40;85.40
16301;DHT22;8258;51.020;4.248;2022-08-30T11:40:45;32.90;84.70
16301;DHT22;8258;51.020;4.248;2022-08-30T11:43:48;33.10;83.40
16301;DHT22;8258;51.020;4.248;2022-08-30T11:46:17;33.60;83.40
16301;DHT22;8258;51.020;4.248;2022-08-30T11:48:51;32.90;83.50
16301;DHT22;8258;51.020;4.248;2022-08-30T11:51:49;31.70;84.50
16301;DHT22;8258;51.020;4.248;2022-08-30T11:54:27;30.90;86.40
16301;DHT22;8258;51.020;4.248;2022-08-30T11:57:03;30.20;88.20
16301;DHT22;8258;51.020;4.248;2022-08-30T11:59:41;31.20;87.80
16301;DHT22;8258;51.020;4.248;2022-08-30T12:02:44;32.90;83.90
16301;DHT22;8258;51.020;4.248;2022-08-30T12:08:42;34.30;79.80
16301;DHT22;8258;51.020;4.248;2022-08-30T12:14:34;33.70;79.30
16301;DHT22;8258;51.020;4.248;2022-08-30T12:17:02;33.20;81.10
16301;DHT22;8258;51.020;4.248;2022-08-30T12:19:54;32.80;81.80
16301;DHT22;8258;51.020;4.248;2022-08-30T12:22:22;32.80;83.50
16301;DHT22;8258;51.020;4.248;2022-08-30T12:24:51;32.90;82.10
16301;DHT22;8258;51.020;4.248;2022-08-30T12:27:24;33.20;80.40
16301;DHT22;8258;51.020;4.248;2022-08-30T12:29:53;33.70;79.40
16301;DHT22;8258;51.020;4.248;2022-08-30T12:32:21;34.00;78.60
16301;DHT22;8258;51.020;4.248;2022-08-30T12:34:50;34.10;78.50
16301;DHT22;8258;51.020;4.248;2022-08-30T12:37:21;34.50;76.90
16301;DHT22;8258;51.020;4.248;2022-08-30T12:40:01;33.80;77.20
16301;DHT22;8258;51.020;4.248;2022-08-30T12:42:31;31.40;82.50
16301;DHT22;8258;51.020;4.248;2022-08-30T12:44:59;31.90;83.30
16301;DHT22;8258;51.020;4.248;2022-08-30T12:47:32;33.60;81.30
16301;DHT22;8258;51.020;4.248;2022-08-30T12:50:05;34.60;76.70
16301;DHT22;8258;51.020;4.248;2022-08-30T12:52:34;35.00;76.40
16301;DHT22;8258;51.020;4.248;2022-08-30T12:55:12;35.90;74.10
16301;DHT22;8258;51.020;4.248;2022-08-30T12:57:41;36.80;71.40
16301;DHT22;8258;51.020;4.248;2022-08-30T13:00:10;36.30;70.00
16301;DHT22;8258;51.020;4.248;2022-08-30T13:02:45;34.80;72.10
16301;DHT22;8258;51.020;4.248;2022-08-30T13:05:46;34.10;74.30
16301;DHT22;8258;51.020;4.248;2022-08-30T13:08:18;34.50;73.20
16301;DHT22;8258;51.020;4.248;2022-08-30T13:10:52;35.40;71.80
16301;DHT22;8258;51.020;4.248;2022-08-30T13:13:30;35.60;70.20
16301;DHT22;8258;51.020;4.248;2022-08-30T13:16:22;36.00;67.80
16301;DHT22;8258;51.020;4.248;2022-08-30T13:18:51;36.10;68.30
16301;DHT22;8258;51.020;4.248;2022-08-30T13:21:25;35.30;69.30
16301;DHT22;8258;51.020;4.248;2022-08-30T13:23:56;35.60;69.60
16301;DHT22;8258;51.020;4.248;2022-08-30T13:26:25;35.90;68.60
16301;DHT22;8258;51.020;4.248;2022-08-30T13:28:54;35.70;68.80
16301;DHT22;8258;51.020;4.248;2022-08-30T13:31:22;36.40;68.00
16301;DHT22;8258;51.020;4.248;2022-08-30T13:33:50;36.90;66.50
16301;DHT22;8258;51.020;4.248;2022-08-30T13:36:19;36.60;66.20
16301;DHT22;8258;51.020;4.248;2022-08-30T13:38:46;35.90;65.60
16301;DHT22;8258;51.020;4.248;2022-08-30T13:41:14;35.70;66.20
16301;DHT22;8258;51.020;4.248;2022-08-30T13:43:43;35.20;68.00
16301;DHT22;8258;51.020;4.248;2022-08-30T13:46:10;35.90;66.40
16301;DHT22;8258;51.020;4.248;2022-08-30T13:48:38;35.20;67.20
16301;DHT22;8258;51.020;4.248;2022-08-30T13:51:05;35.20;67.50
16301;DHT22;8258;51.020;4.248;2022-08-30T13:53:34;35.00;67.10
16301;DHT22;8258;51.020;4.248;2022-08-30T13:56:01;33.10;70.00
16301;DHT22;8258;51.020;4.248;2022-08-30T13:58:28;31.70;73.10
16301;DHT22;8258;51.020;4.248;2022-08-30T14:00:58;31.50;74.70
16301;DHT22;8258;51.020;4.248;2022-08-30T14:03:25;32.70;72.20
16301;DHT22;8258;51.020;4.248;2022-08-30T14:05:52;33.20;71.10
16301;DHT22;8258;51.020;4.248;2022-08-30T14:08:20;32.70;72.00
16301;DHT22;8258;51.020;4.248;2022-08-30T14:10:52;33.30;71.90
16301;DHT22;8258;51.020;4.248;2022-08-30T14:13:19;34.50;70.60
16301;DHT22;8258;51.020;4.248;2022-08-30T14:15:46;35.60;67.70
16301;DHT22;8258;51.020;4.248;2022-08-30T14:18:14;34.70;67.90
16301;DHT22;8258;51.020;4.248;2022-08-30T14:20:41;34.50;67.90
16301;DHT22;8258;51.020;4.248;2022-08-30T14:23:09;34.40;68.40
16301;DHT22;8258;51.020;4.248;2022-08-30T14:25:38;34.80;67.90
16301;DHT22;8258;51.020;4.248;2022-08-30T14:28:05;35.10;67.50
16301;DHT22;8258;51.020;4.248;2022-08-30T14:30:32;34.30;67.00
16301;DHT22;8258;51.020;4.248;2022-08-30T14:32:59;34.80;66.80
16301;DHT22;8258;51.020;4.248;2022-08-30T14:35:27;35.30;65.10
16301;DHT22;8258;51.020;4.248;2022-08-30T14:37:54;35.90;63.80
16301;DHT22;8258;51.020;4.248;2022-08-30T14:40:21;36.20;63.60
16301;DHT22;8258;51.020;4.248;2022-08-30T14:42:48;36.00;63.40
16301;DHT22;8258;51.020;4.248;2022-08-30T14:45:15;35.30;63.90
16301;DHT22;8258;51.020;4.248;2022-08-30T14:47:42;35.00;65.30
16301;DHT22;8258;51.020;4.248;2022-08-30T14:50:09;34.70;65.60
16301;DHT22;8258;51.020;4.248;2022-08-30T14:52:37;34.30;65.40
16301;DHT22;8258;51.020;4.248;2022-08-30T14:55:07;33.50;67.20
16301;DHT22;8258;51.020;4.248;2022-08-30T14:57:34;32.10;69.30
16301;DHT22;8258;51.020;4.248;2022-08-30T15:00:02;31.60;71.20
16301;DHT22;8258;51.020;4.248;2022-08-30T15:02:29;32.30;71.20
16301;DHT22;8258;51.020;4.248;2022-08-30T15:04:56;32.80;69.40
16301;DHT22;8258;51.020;4.248;2022-08-30T15:07:23;32.40;69.70
16301;DHT22;8258;51.020;4.248;2022-08-30T15:09:51;31.80;71.00
16301;DHT22;8258;51.020;4.248;2022-08-30T15:12:18;32.20;71.80
16301;DHT22;8258;51.020;4.248;2022-08-30T15:14:45;32.80;71.50
16301;DHT22;8258;51.020;4.248;2022-08-30T15:17:12;33.30;69.10
16301;DHT22;8258;51.020;4.248;2022-08-30T15:19:39;33.60;69.00
16301;DHT22;8258;51.020;4.248;2022-08-30T15:22:06;33.50;67.60
16301;DHT22;8258;51.020;4.248;2022-08-30T15:24:33;33.50;70.10
16301;DHT22;8258;51.020;4.248;2022-08-30T15:27:03;33.70;68.90
16301;DHT22;8258;51.020;4.248;2022-08-30T15:29:30;34.00;68.70
16301;DHT22;8258;51.020;4.248;2022-08-30T15:31:57;33.50;68.20
16301;DHT22;8258;51.020;4.248;2022-08-30T15:34:24;33.10;69.30
16301;DHT22;8258;51.020;4.248;2022-08-30T15:36:51;32.90;69.30
16301;DHT22;8258;51.020;4.248;2022-08-30T15:39:18;31.50;71.40
16301;DHT22;8258;51.020;4.248;2022-08-30T15:41:45;30.80;73.30
16301;DHT22;8258;51.020;4.248;2022-08-30T15:44:15;30.10;75.00
16301;DHT22;8258;51.020;4.248;2022-08-30T15:46:43;29.50;76.80
16301;DHT22;8258;51.020;4.248;2022-08-30T15:49:13;29.10;77.60
16301;DHT22;8258;51.020;4.248;2022-08-30T15:51:40;28.70;78.60
16301;DHT22;8258;51.020;4.248;2022-08-30T15:54:09;28.00;80.80
16301;DHT22;8258;51.020;4.248;2022-08-30T15:56:36;27.60;81.60
16301;DHT22;8258;51.020;4.248;2022-08-30T15:59:03;27.60;82.30
16301;DHT22;8258;51.020;4.248;2022-08-30T16:01:31;27.60;82.90
16301;DHT22;8258;51.020;4.248;2022-08-30T16:03:59;27.60;83.40
16301;DHT22;8258;51.020;4.248;2022-08-30T16:06:28;27.50;83.00
16301;DHT22;8258;51.020;4.248;2022-08-30T16:08:56;27.20;83.60
16301;DHT22;8258;51.020;4.248;2022-08-30T16:11:23;26.90;84.50